Terminal Aerodrome Forecast
Issued by NWS Atlanta, GA

Home | Current Version | Previous Version | Text Only | Print | Product List | Glossary On
Versions: 1 2 3 4 5 6 7 8 9 10 11 12 13 14
000
FTUS42 KFFC 270808 AAA
TAFCSG
TAF AMD
KCSG 270808Z 2708/2806 19006KT P6SM BKN015
     FM271100 18007KT P6SM VCSH BKN015
     FM271500 18012KT 6SM -SHRA BR SCT012 BKN025
      TEMPO 2716/2719 VRB15G30KT 4SM -TSRA BR BKN012CB
     FM271900 24013G22KT 6SM -RA BR BKN025
     FM272100 25013G22KT P6SM SCT050 BKN100
     FM280000 23007KT P6SM SCT250=

USA.gov is the U.S. government's official web portal to all federal, state and local government web resources and services.